Crowder, Mississippi
Current Conditions -  °F | °C
As of 7:55 PM on Saturday 20 Dec 2014 (Local Time) from KCKM Reporting Station
Clear Clear  
Wind Chill: 34°   Ceiling: Unl
Heat Index: 39°   Visibility: 9mi
Dew Point: 37°   Wind: 7mph
Humidity: 93%   Direction: 350°N
Pressure: 30.24"   Gusts: NA
Location:  34.17°N, 90.14°W
Report Text: KCKM 210155Z AUTO 35006KT 9SM CLR 04/03 A3024 RMK AO1
Loading
Personal Weather Stations






























Interactive Weather Map New forecast layout! Learn more

10-Day Weather Forecast

Advertisements
Track Severe Weather on mobile